sensor_id;sensor_type;location;lat;lon;timestamp;pressure;altitude;pressure_sealevel;temperature;humidity
10668;BME280;5382;42.136;24.796;2024-03-08T00:02:17;100116.19;;;7.46;100.00
10668;BME280;5382;42.136;24.796;2024-03-08T00:04:44;100120.56;;;7.46;100.00
10668;BME280;5382;42.136;24.796;2024-03-08T00:07:11;100122.94;;;7.50;100.00
10668;BME280;5382;42.136;24.796;2024-03-08T00:09:39;100121.94;;;7.53;100.00
10668;BME280;5382;42.136;24.796;2024-03-08T00:12:07;100112.78;;;7.44;100.00
10668;BME280;5382;42.136;24.796;2024-03-08T00:14:35;100075.75;;;7.31;100.00
10668;BME280;5382;42.136;24.796;2024-03-08T00:17:03;100115.66;;;7.55;100.00
10668;BME280;5382;42.136;24.796;2024-03-08T00:19:31;100053.56;;;7.19;100.00
10668;BME280;5382;42.136;24.796;2024-03-08T00:21:58;100076.59;;;7.32;100.00
10668;BME280;5382;42.136;24.796;2024-03-08T00:24:25;100097.91;;;7.43;100.00
10668;BME280;5382;42.136;24.796;2024-03-08T00:26:54;100101.47;;;7.42;100.00
10668;BME280;5382;42.136;24.796;2024-03-08T00:29:21;100085.94;;;7.37;100.00
10668;BME280;5382;42.136;24.796;2024-03-08T00:31:48;100100.69;;;7.40;100.00
10668;BME280;5382;42.136;24.796;2024-03-08T00:34:15;100110.50;;;7.54;100.00
10668;BME280;5382;42.136;24.796;2024-03-08T00:36:43;100114.03;;;7.53;100.00
10668;BME280;5382;42.136;24.796;2024-03-08T00:39:11;100111.50;;;7.51;100.00
10668;BME280;5382;42.136;24.796;2024-03-08T00:41:38;100092.31;;;7.33;100.00
10668;BME280;5382;42.136;24.796;2024-03-08T00:44:05;100109.63;;;7.37;100.00
10668;BME280;5382;42.136;24.796;2024-03-08T00:46:32;100111.94;;;7.43;100.00
10668;BME280;5382;42.136;24.796;2024-03-08T00:48:59;100114.81;;;7.39;100.00
10668;BME280;5382;42.136;24.796;2024-03-08T00:51:26;100101.22;;;7.31;100.00
10668;BME280;5382;42.136;24.796;2024-03-08T00:53:55;100112.84;;;7.42;100.00
10668;BME280;5382;42.136;24.796;2024-03-08T00:56:22;100110.56;;;7.52;100.00
10668;BME280;5382;42.136;24.796;2024-03-08T00:58:50;100109.03;;;7.48;100.00
10668;BME280;5382;42.136;24.796;2024-03-08T01:01:18;100107.50;;;7.60;100.00
10668;BME280;5382;42.136;24.796;2024-03-08T01:03:45;100108.78;;;7.53;100.00
10668;BME280;5382;42.136;24.796;2024-03-08T01:06:12;100100.22;;;7.49;100.00
10668;BME280;5382;42.136;24.796;2024-03-08T01:08:40;100095.25;;;7.43;100.00
10668;BME280;5382;42.136;24.796;2024-03-08T01:11:09;100096.81;;;7.47;100.00
10668;BME280;5382;42.136;24.796;2024-03-08T01:13:36;100097.81;;;7.45;100.00
10668;BME280;5382;42.136;24.796;2024-03-08T01:16:04;100096.38;;;7.39;100.00
10668;BME280;5382;42.136;24.796;2024-03-08T01:18:31;100098.00;;;7.41;100.00
10668;BME280;5382;42.136;24.796;2024-03-08T01:20:58;100094.94;;;7.33;100.00
10668;BME280;5382;42.136;24.796;2024-03-08T01:23:26;100102.56;;;7.38;100.00
10668;BME280;5382;42.136;24.796;2024-03-08T01:25:52;100090.00;;;7.43;100.00
10668;BME280;5382;42.136;24.796;2024-03-08T01:28:24;100119.13;;;7.24;100.00
10668;BME280;5382;42.136;24.796;2024-03-08T01:30:51;100072.84;;;7.20;100.00
10668;BME280;5382;42.136;24.796;2024-03-08T01:33:21;100096.47;;;7.37;100.00
10668;BME280;5382;42.136;24.796;2024-03-08T01:35:49;100101.81;;;7.36;100.00
10668;BME280;5382;42.136;24.796;2024-03-08T01:38:16;100042.09;;;6.89;100.00
10668;BME280;5382;42.136;24.796;2024-03-08T01:40:43;100106.38;;;7.48;100.00
10668;BME280;5382;42.136;24.796;2024-03-08T01:43:20;100100.34;;;7.30;100.00
10668;BME280;5382;42.136;24.796;2024-03-08T01:45:48;100105.56;;;7.32;100.00
10668;BME280;5382;42.136;24.796;2024-03-08T01:48:16;100112.50;;;7.33;100.00
10668;BME280;5382;42.136;24.796;2024-03-08T01:50:45;100108.78;;;7.37;100.00
10668;BME280;5382;42.136;24.796;2024-03-08T01:53:13;100110.47;;;7.38;100.00
10668;BME280;5382;42.136;24.796;2024-03-08T01:55:41;100114.13;;;7.51;100.00
10668;BME280;5382;42.136;24.796;2024-03-08T01:58:10;100101.88;;;7.50;100.00
10668;BME280;5382;42.136;24.796;2024-03-08T02:00:39;100104.53;;;7.34;100.00
10668;BME280;5382;42.136;24.796;2024-03-08T02:03:08;100079.72;;;7.22;100.00
10668;BME280;5382;42.136;24.796;2024-03-08T02:05:36;100094.34;;;7.44;100.00
10668;BME280;5382;42.136;24.796;2024-03-08T02:08:04;100103.44;;;7.54;100.00
10668;BME280;5382;42.136;24.796;2024-03-08T02:10:32;100109.03;;;7.48;100.00
10668;BME280;5382;42.136;24.796;2024-03-08T02:13:01;100109.88;;;7.33;100.00
10668;BME280;5382;42.136;24.796;2024-03-08T02:15:49;100109.44;;;7.25;100.00
10668;BME280;5382;42.136;24.796;2024-03-08T02:18:20;100109.19;;;7.13;100.00
10668;BME280;5382;42.136;24.796;2024-03-08T02:20:49;100107.22;;;7.17;100.00
10668;BME280;5382;42.136;24.796;2024-03-08T02:23:16;100110.88;;;7.14;100.00
10668;BME280;5382;42.136;24.796;2024-03-08T02:25:43;100111.28;;;7.07;100.00
10668;BME280;5382;42.136;24.796;2024-03-08T02:28:11;100110.28;;;7.09;100.00
10668;BME280;5382;42.136;24.796;2024-03-08T02:30:38;100114.34;;;6.99;100.00
10668;BME280;5382;42.136;24.796;2024-03-08T02:33:06;100111.69;;;6.99;100.00
10668;BME280;5382;42.136;24.796;2024-03-08T02:35:35;100111.81;;;6.97;100.00
10668;BME280;5382;42.136;24.796;2024-03-08T02:38:03;100110.25;;;6.93;100.00
10668;BME280;5382;42.136;24.796;2024-03-08T02:40:30;100098.44;;;6.85;100.00
10668;BME280;5382;42.136;24.796;2024-03-08T02:42:57;100106.53;;;6.97;100.00
10668;BME280;5382;42.136;24.796;2024-03-08T02:45:24;100111.53;;;7.02;100.00
10668;BME280;5382;42.136;24.796;2024-03-08T02:47:51;100119.94;;;6.93;100.00
10668;BME280;5382;42.136;24.796;2024-03-08T02:50:18;100124.25;;;6.94;100.00
10668;BME280;5382;42.136;24.796;2024-03-08T02:52:48;100125.97;;;6.95;100.00
10668;BME280;5382;42.136;24.796;2024-03-08T02:55:16;100123.66;;;6.89;100.00
10668;BME280;5382;42.136;24.796;2024-03-08T02:57:43;100120.00;;;6.91;100.00
10668;BME280;5382;42.136;24.796;2024-03-08T03:00:13;100110.22;;;6.77;100.00
10668;BME280;5382;42.136;24.796;2024-03-08T03:02:41;100109.63;;;6.72;100.00
10668;BME280;5382;42.136;24.796;2024-03-08T03:05:08;100114.53;;;6.78;100.00
10668;BME280;5382;42.136;24.796;2024-03-08T03:07:37;100096.31;;;6.58;100.00
10668;BME280;5382;42.136;24.796;2024-03-08T03:10:05;100111.47;;;6.70;100.00
10668;BME280;5382;42.136;24.796;2024-03-08T03:12:34;100121.53;;;6.80;100.00
10668;BME280;5382;42.136;24.796;2024-03-08T03:15:01;100124.94;;;6.82;100.00
10668;BME280;5382;42.136;24.796;2024-03-08T03:17:28;100109.38;;;6.77;100.00
10668;BME280;5382;42.136;24.796;2024-03-08T03:19:55;100118.44;;;6.71;100.00
10668;BME280;5382;42.136;24.796;2024-03-08T03:22:22;100122.13;;;6.85;100.00
10668;BME280;5382;42.136;24.796;2024-03-08T03:24:51;100129.47;;;6.78;100.00
10668;BME280;5382;42.136;24.796;2024-03-08T03:27:19;100131.53;;;6.89;100.00
10668;BME280;5382;42.136;24.796;2024-03-08T03:29:47;100092.94;;;6.56;100.00
10668;BME280;5382;42.136;24.796;2024-03-08T03:32:15;100130.81;;;6.69;100.00
10668;BME280;5382;42.136;24.796;2024-03-08T03:34:44;100135.97;;;6.71;100.00
10668;BME280;5382;42.136;24.796;2024-03-08T03:37:11;100139.47;;;6.71;100.00
10668;BME280;5382;42.136;24.796;2024-03-08T03:39:38;100120.88;;;6.59;100.00
10668;BME280;5382;42.136;24.796;2024-03-08T03:42:14;100107.63;;;6.60;100.00
10668;BME280;5382;42.136;24.796;2024-03-08T03:44:42;100119.75;;;6.63;100.00
10668;BME280;5382;42.136;24.796;2024-03-08T03:47:12;100137.13;;;6.83;100.00
10668;BME280;5382;42.136;24.796;2024-03-08T03:49:40;100139.09;;;6.79;100.00
10668;BME280;5382;42.136;24.796;2024-03-08T03:52:07;100144.03;;;6.68;100.00
10668;BME280;5382;42.136;24.796;2024-03-08T03:54:34;100146.88;;;6.63;100.00
10668;BME280;5382;42.136;24.796;2024-03-08T03:57:01;100148.06;;;6.58;100.00
10668;BME280;5382;42.136;24.796;2024-03-08T03:59:28;100137.09;;;6.67;100.00
10668;BME280;5382;42.136;24.796;2024-03-08T04:01:55;100158.97;;;6.67;100.00
10668;BME280;5382;42.136;24.796;2024-03-08T04:04:24;100125.97;;;6.44;100.00
10668;BME280;5382;42.136;24.796;2024-03-08T04:06:51;100137.59;;;6.40;100.00
10668;BME280;5382;42.136;24.796;2024-03-08T04:09:18;100155.44;;;6.51;100.00
10668;BME280;5382;42.136;24.796;2024-03-08T04:11:47;100149.06;;;6.55;100.00
10668;BME280;5382;42.136;24.796;2024-03-08T04:14:18;100159.06;;;6.48;100.00
10668;BME280;5382;42.136;24.796;2024-03-08T04:16:45;100144.66;;;6.55;100.00
10668;BME280;5382;42.136;24.796;2024-03-08T04:19:14;100152.25;;;6.44;100.00
10668;BME280;5382;42.136;24.796;2024-03-08T04:21:42;100159.28;;;6.44;100.00
10668;BME280;5382;42.136;24.796;2024-03-08T04:24:09;100097.31;;;6.05;100.00
10668;BME280;5382;42.136;24.796;2024-03-08T04:26:36;100144.97;;;6.49;100.00
10668;BME280;5382;42.136;24.796;2024-03-08T04:29:03;100160.59;;;6.52;100.00
10668;BME280;5382;42.136;24.796;2024-03-08T04:31:30;100163.78;;;6.42;100.00
10668;BME280;5382;42.136;24.796;2024-03-08T04:33:57;100155.03;;;6.24;100.00
10668;BME280;5382;42.136;24.796;2024-03-08T04:36:24;100167.38;;;6.22;100.00
10668;BME280;5382;42.136;24.796;2024-03-08T04:38:53;100155.19;;;6.21;100.00
10668;BME280;5382;42.136;24.796;2024-03-08T04:41:20;100166.00;;;6.15;100.00
10668;BME280;5382;42.136;24.796;2024-03-08T04:43:48;100160.22;;;6.25;100.00
10668;BME280;5382;42.136;24.796;2024-03-08T04:46:16;100164.84;;;6.20;100.00
10668;BME280;5382;42.136;24.796;2024-03-08T04:48:43;100171.25;;;6.15;100.00
10668;BME280;5382;42.136;24.796;2024-03-08T04:51:10;100166.84;;;6.15;100.00
10668;BME280;5382;42.136;24.796;2024-03-08T04:53:37;100173.31;;;6.08;100.00
10668;BME280;5382;42.136;24.796;2024-03-08T04:56:06;100174.31;;;6.05;100.00
10668;BME280;5382;42.136;24.796;2024-03-08T04:58:35;100175.81;;;6.11;100.00
10668;BME280;5382;42.136;24.796;2024-03-08T05:01:02;100169.75;;;6.09;100.00
10668;BME280;5382;42.136;24.796;2024-03-08T05:03:29;100182.63;;;6.15;100.00
10668;BME280;5382;42.136;24.796;2024-03-08T05:05:56;100167.28;;;6.06;100.00
10668;BME280;5382;42.136;24.796;2024-03-08T05:08:23;100187.88;;;6.15;100.00
10668;BME280;5382;42.136;24.796;2024-03-08T05:10:51;100182.16;;;6.07;100.00
10668;BME280;5382;42.136;24.796;2024-03-08T05:13:20;100180.78;;;6.17;100.00
10668;BME280;5382;42.136;24.796;2024-03-08T05:15:49;100186.72;;;6.21;100.00
10668;BME280;5382;42.136;24.796;2024-03-08T05:18:16;100182.47;;;6.18;100.00
10668;BME280;5382;42.136;24.796;2024-03-08T05:20:43;100190.91;;;6.25;100.00
10668;BME280;5382;42.136;24.796;2024-03-08T05:23:10;100197.06;;;6.24;100.00
10668;BME280;5382;42.136;24.796;2024-03-08T05:25:37;100207.00;;;6.00;100.00
10668;BME280;5382;42.136;24.796;2024-03-08T05:28:05;100205.06;;;6.03;100.00
10668;BME280;5382;42.136;24.796;2024-03-08T05:30:33;100204.06;;;6.06;100.00
10668;BME280;5382;42.136;24.796;2024-03-08T05:33:01;100208.69;;;6.01;100.00
10668;BME280;5382;42.136;24.796;2024-03-08T05:35:29;100208.06;;;5.96;100.00
10668;BME280;5382;42.136;24.796;2024-03-08T05:37:56;100213.88;;;6.02;100.00
10668;BME280;5382;42.136;24.796;2024-03-08T05:40:23;100214.53;;;6.07;100.00
10668;BME280;5382;42.136;24.796;2024-03-08T05:42:50;100221.47;;;6.08;100.00
10668;BME280;5382;42.136;24.796;2024-03-08T05:45:17;100223.81;;;6.15;100.00
10668;BME280;5382;42.136;24.796;2024-03-08T05:47:45;100228.69;;;6.22;100.00
10668;BME280;5382;42.136;24.796;2024-03-08T05:50:13;100228.06;;;6.17;100.00
10668;BME280;5382;42.136;24.796;2024-03-08T05:52:41;100232.53;;;6.15;100.00
10668;BME280;5382;42.136;24.796;2024-03-08T05:55:08;100240.69;;;6.28;100.00
10668;BME280;5382;42.136;24.796;2024-03-08T05:57:36;100229.69;;;6.20;100.00
10668;BME280;5382;42.136;24.796;2024-03-08T06:00:06;100234.00;;;6.21;100.00
10668;BME280;5382;42.136;24.796;2024-03-08T06:02:33;100237.47;;;6.21;100.00
10668;BME280;5382;42.136;24.796;2024-03-08T06:05:07;100239.84;;;6.27;100.00
10668;BME280;5382;42.136;24.796;2024-03-08T06:07:34;100244.84;;;6.15;100.00
10668;BME280;5382;42.136;24.796;2024-03-08T06:10:02;100240.00;;;6.05;100.00
10668;BME280;5382;42.136;24.796;2024-03-08T06:12:29;100243.47;;;6.06;100.00
10668;BME280;5382;42.136;24.796;2024-03-08T06:14:59;100256.03;;;6.18;100.00
10668;BME280;5382;42.136;24.796;2024-03-08T06:17:29;100220.63;;;6.08;100.00
10668;BME280;5382;42.136;24.796;2024-03-08T06:19:56;100253.91;;;6.44;100.00
10668;BME280;5382;42.136;24.796;2024-03-08T06:22:25;100255.31;;;6.51;100.00
10668;BME280;5382;42.136;24.796;2024-03-08T06:24:52;100253.44;;;6.53;100.00
10668;BME280;5382;42.136;24.796;2024-03-08T06:27:19;100259.81;;;6.49;100.00
10668;BME280;5382;42.136;24.796;2024-03-08T06:29:46;100263.97;;;6.53;100.00
10668;BME280;5382;42.136;24.796;2024-03-08T06:32:14;100266.31;;;6.59;100.00
10668;BME280;5382;42.136;24.796;2024-03-08T06:34:42;100260.84;;;6.64;100.00
10668;BME280;5382;42.136;24.796;2024-03-08T06:37:09;100271.66;;;6.75;100.00
10668;BME280;5382;42.136;24.796;2024-03-08T06:39:37;100264.47;;;6.61;100.00
10668;BME280;5382;42.136;24.796;2024-03-08T06:42:05;100194.41;;;6.06;100.00
10668;BME280;5382;42.136;24.796;2024-03-08T06:44:32;100269.72;;;6.61;100.00
10668;BME280;5382;42.136;24.796;2024-03-08T06:47:00;100254.69;;;6.46;100.00
10668;BME280;5382;42.136;24.796;2024-03-08T06:49:27;100268.16;;;6.57;100.00
10668;BME280;5382;42.136;24.796;2024-03-08T06:51:56;100271.09;;;6.68;100.00
10668;BME280;5382;42.136;24.796;2024-03-08T06:54:23;100265.06;;;6.84;100.00
10668;BME280;5382;42.136;24.796;2024-03-08T06:56:52;100223.75;;;6.68;100.00
10668;BME280;5382;42.136;24.796;2024-03-08T06:59:18;100276.53;;;7.00;100.00
10668;BME280;5382;42.136;24.796;2024-03-08T07:01:46;100285.34;;;6.99;100.00
10668;BME280;5382;42.136;24.796;2024-03-08T07:04:13;100284.94;;;7.07;100.00
10668;BME280;5382;42.136;24.796;2024-03-08T07:06:40;100284.81;;;6.92;100.00
10668;BME280;5382;42.136;24.796;2024-03-08T07:09:07;100284.59;;;6.80;100.00
10668;BME280;5382;42.136;24.796;2024-03-08T07:11:34;100291.53;;;6.81;100.00
10668;BME280;5382;42.136;24.796;2024-03-08T07:14:03;100292.00;;;6.89;100.00
10668;BME280;5382;42.136;24.796;2024-03-08T07:16:31;100284.03;;;6.73;100.00
10668;BME280;5382;42.136;24.796;2024-03-08T07:18:59;100228.03;;;6.53;100.00
10668;BME280;5382;42.136;24.796;2024-03-08T07:21:26;100294.00;;;7.01;100.00
10668;BME280;5382;42.136;24.796;2024-03-08T07:23:53;100232.44;;;6.70;100.00
10668;BME280;5382;42.136;24.796;2024-03-08T07:26:35;100286.44;;;6.95;100.00
10668;BME280;5382;42.136;24.796;2024-03-08T07:29:07;100255.81;;;6.76;100.00
10668;BME280;5382;42.136;24.796;2024-03-08T07:31:34;100292.00;;;7.06;100.00
10668;BME280;5382;42.136;24.796;2024-03-08T07:34:15;100268.47;;;6.86;100.00
10668;BME280;5382;42.136;24.796;2024-03-08T07:36:42;100297.75;;;6.97;100.00
10668;BME280;5382;42.136;24.796;2024-03-08T07:39:09;100274.81;;;6.99;100.00
10668;BME280;5382;42.136;24.796;2024-03-08T07:41:37;100293.78;;;7.23;100.00
10668;BME280;5382;42.136;24.796;2024-03-08T07:44:07;100294.53;;;7.25;100.00
10668;BME280;5382;42.136;24.796;2024-03-08T07:46:34;100308.63;;;7.24;100.00
10668;BME280;5382;42.136;24.796;2024-03-08T07:49:02;100279.00;;;7.03;100.00
10668;BME280;5382;42.136;24.796;2024-03-08T07:51:29;100302.28;;;7.28;100.00
10668;BME280;5382;42.136;24.796;2024-03-08T07:53:57;100293.38;;;7.31;100.00
10668;BME280;5382;42.136;24.796;2024-03-08T07:56:24;100289.34;;;7.41;100.00
10668;BME280;5382;42.136;24.796;2024-03-08T07:58:50;100301.09;;;7.51;100.00
10668;BME280;5382;42.136;24.796;2024-03-08T08:01:20;100299.81;;;7.58;100.00
10668;BME280;5382;42.136;24.796;2024-03-08T08:03:47;100298.97;;;7.58;100.00
10668;BME280;5382;42.136;24.796;2024-03-08T08:06:15;100299.50;;;7.64;100.00
10668;BME280;5382;42.136;24.796;2024-03-08T08:08:42;100306.63;;;7.62;100.00
10668;BME280;5382;42.136;24.796;2024-03-08T08:11:09;100294.28;;;7.47;100.00
10668;BME280;5382;42.136;24.796;2024-03-08T08:13:37;100311.72;;;7.65;100.00
10668;BME280;5382;42.136;24.796;2024-03-08T08:16:05;100310.13;;;7.79;100.00
10668;BME280;5382;42.136;24.796;2024-03-08T08:18:35;100324.19;;;7.95;100.00
10668;BME280;5382;42.136;24.796;2024-03-08T08:21:02;100317.03;;;7.97;100.00
10668;BME280;5382;42.136;24.796;2024-03-08T08:23:32;100312.38;;;8.18;100.00
10668;BME280;5382;42.136;24.796;2024-03-08T08:25:59;100310.69;;;8.33;100.00
10668;BME280;5382;42.136;24.796;2024-03-08T08:28:28;100316.91;;;8.16;100.00
10668;BME280;5382;42.136;24.796;2024-03-08T08:30:56;100317.81;;;7.99;100.00
10668;BME280;5382;42.136;24.796;2024-03-08T08:33:25;100308.81;;;8.03;100.00
10668;BME280;5382;42.136;24.796;2024-03-08T08:35:53;100322.91;;;8.02;100.00
10668;BME280;5382;42.136;24.796;2024-03-08T08:38:21;100319.06;;;7.92;100.00
10668;BME280;5382;42.136;24.796;2024-03-08T08:40:48;100326.53;;;7.84;100.00
10668;BME280;5382;42.136;24.796;2024-03-08T08:43:15;100324.19;;;7.95;100.00
10668;BME280;5382;42.136;24.796;2024-03-08T08:45:43;100332.22;;;7.76;100.00
10668;BME280;5382;42.136;24.796;2024-03-08T08:48:12;100321.56;;;7.95;100.00
10668;BME280;5382;42.136;24.796;2024-03-08T08:50:39;100315.78;;;8.04;100.00
10668;BME280;5382;42.136;24.796;2024-03-08T08:53:08;100318.94;;;8.11;100.00
10668;BME280;5382;42.136;24.796;2024-03-08T08:55:36;100313.84;;;8.24;100.00
10668;BME280;5382;42.136;24.796;2024-03-08T08:58:04;100312.47;;;8.48;100.00
10668;BME280;5382;42.136;24.796;2024-03-08T09:00:32;100319.72;;;8.45;100.00
10668;BME280;5382;42.136;24.796;2024-03-08T09:03:00;100317.84;;;8.63;100.00
10668;BME280;5382;42.136;24.796;2024-03-08T09:05:27;100312.16;;;8.55;100.00
10668;BME280;5382;42.136;24.796;2024-03-08T09:07:54;100321.97;;;8.67;100.00
10668;BME280;5382;42.136;24.796;2024-03-08T09:10:23;100314.84;;;8.69;100.00
10668;BME280;5382;42.136;24.796;2024-03-08T09:12:51;100318.41;;;8.98;100.00
10668;BME280;5382;42.136;24.796;2024-03-08T09:15:18;100312.53;;;9.09;100.00
10668;BME280;5382;42.136;24.796;2024-03-08T09:17:46;100319.69;;;9.07;100.00
10668;BME280;5382;42.136;24.796;2024-03-08T09:20:14;100315.44;;;9.04;100.00
10668;BME280;5382;42.136;24.796;2024-03-08T09:22:43;100314.81;;;8.85;100.00
10668;BME280;5382;42.136;24.796;2024-03-08T09:25:11;100316.88;;;9.10;100.00
10668;BME280;5382;42.136;24.796;2024-03-08T09:27:39;100273.66;;;9.11;100.00
10668;BME280;5382;42.136;24.796;2024-03-08T09:30:07;100313.38;;;9.09;100.00
10668;BME280;5382;42.136;24.796;2024-03-08T09:32:34;100326.06;;;9.33;100.00
10668;BME280;5382;42.136;24.796;2024-03-08T09:35:02;100321.50;;;9.21;100.00
10668;BME280;5382;42.136;24.796;2024-03-08T09:37:32;100317.38;;;9.31;100.00
10668;BME280;5382;42.136;24.796;2024-03-08T09:40:00;100325.50;;;9.56;100.00
10668;BME280;5382;42.136;24.796;2024-03-08T09:42:31;100344.66;;;9.60;100.00
10668;BME280;5382;42.136;24.796;2024-03-08T09:45:00;100322.22;;;9.53;100.00
10668;BME280;5382;42.136;24.796;2024-03-08T09:47:28;100322.59;;;9.75;100.00
10668;BME280;5382;42.136;24.796;2024-03-08T09:49:59;100330.63;;;9.74;100.00
10668;BME280;5382;42.136;24.796;2024-03-08T09:52:26;100310.25;;;9.76;100.00
10668;BME280;5382;42.136;24.796;2024-03-08T09:54:56;100316.56;;;9.73;100.00
10668;BME280;5382;42.136;24.796;2024-03-08T09:57:25;100324.84;;;9.67;100.00
10668;BME280;5382;42.136;24.796;2024-03-08T09:59:52;100320.44;;;9.53;100.00
10668;BME280;5382;42.136;24.796;2024-03-08T10:02:21;100319.13;;;9.60;100.00
10668;BME280;5382;42.136;24.796;2024-03-08T10:04:48;100314.28;;;9.67;100.00
10668;BME280;5382;42.136;24.796;2024-03-08T10:07:15;100284.78;;;9.60;100.00
10668;BME280;5382;42.136;24.796;2024-03-08T10:09:42;100318.53;;;9.84;100.00
10668;BME280;5382;42.136;24.796;2024-03-08T10:12:15;100305.03;;;9.74;100.00
10668;BME280;5382;42.136;24.796;2024-03-08T10:14:42;100301.75;;;9.56;100.00
10668;BME280;5382;42.136;24.796;2024-03-08T10:17:10;100303.06;;;9.64;100.00
10668;BME280;5382;42.136;24.796;2024-03-08T10:19:38;100311.75;;;9.66;100.00
10668;BME280;5382;42.136;24.796;2024-03-08T10:22:05;100279.38;;;9.48;100.00
10668;BME280;5382;42.136;24.796;2024-03-08T10:24:33;100308.16;;;9.81;100.00
10668;BME280;5382;42.136;24.796;2024-03-08T10:27:01;100295.03;;;9.65;100.00
10668;BME280;5382;42.136;24.796;2024-03-08T10:29:31;100312.78;;;9.77;100.00
10668;BME280;5382;42.136;24.796;2024-03-08T10:31:58;100312.56;;;9.80;100.00
10668;BME280;5382;42.136;24.796;2024-03-08T10:34:25;100309.00;;;9.81;100.00
10668;BME280;5382;42.136;24.796;2024-03-08T10:36:56;100304.28;;;9.72;100.00
10668;BME280;5382;42.136;24.796;2024-03-08T10:39:32;100304.56;;;9.82;100.00
10668;BME280;5382;42.136;24.796;2024-03-08T10:42:03;100297.78;;;9.64;100.00
10668;BME280;5382;42.136;24.796;2024-03-08T10:44:41;100295.22;;;9.62;100.00
10668;BME280;5382;42.136;24.796;2024-03-08T10:47:17;100276.56;;;9.51;100.00
10668;BME280;5382;42.136;24.796;2024-03-08T10:49:51;100272.13;;;9.51;100.00
10668;BME280;5382;42.136;24.796;2024-03-08T10:52:20;100300.41;;;9.78;100.00
10668;BME280;5382;42.136;24.796;2024-03-08T10:54:48;100298.63;;;9.64;100.00
10668;BME280;5382;42.136;24.796;2024-03-08T10:57:18;100263.91;;;9.42;100.00
10668;BME280;5382;42.136;24.796;2024-03-08T10:59:47;100294.47;;;9.46;100.00
10668;BME280;5382;42.136;24.796;2024-03-08T11:02:16;100254.19;;;9.28;100.00
10668;BME280;5382;42.136;24.796;2024-03-08T11:04:48;100283.16;;;9.58;100.00
10668;BME280;5382;42.136;24.796;2024-03-08T11:07:16;100279.75;;;9.70;100.00
10668;BME280;5382;42.136;24.796;2024-03-08T11:09:49;100281.44;;;9.86;100.00
10668;BME280;5382;42.136;24.796;2024-03-08T11:12:20;100275.66;;;9.93;100.00
10668;BME280;5382;42.136;24.796;2024-03-08T11:14:51;100281.25;;;9.89;100.00
10668;BME280;5382;42.136;24.796;2024-03-08T11:17:21;100277.94;;;9.99;100.00
10668;BME280;5382;42.136;24.796;2024-03-08T11:19:48;100270.16;;;10.11;100.00
10668;BME280;5382;42.136;24.796;2024-03-08T11:22:21;100276.84;;;10.31;100.00
10668;BME280;5382;42.136;24.796;2024-03-08T11:24:51;100275.13;;;10.30;100.00
10668;BME280;5382;42.136;24.796;2024-03-08T11:27:18;100268.47;;;10.10;100.00
10668;BME280;5382;42.136;24.796;2024-03-08T11:30:00;100252.47;;;10.25;100.00
10668;BME280;5382;42.136;24.796;2024-03-08T11:32:35;100248.53;;;10.04;100.00
10668;BME280;5382;42.136;24.796;2024-03-08T11:35:06;100257.97;;;10.50;100.00
10668;BME280;5382;42.136;24.796;2024-03-08T11:37:35;100261.31;;;10.79;100.00
10668;BME280;5382;42.136;24.796;2024-03-08T11:40:12;100271.75;;;11.20;100.00
10668;BME280;5382;42.136;24.796;2024-03-08T11:42:44;100268.03;;;11.48;100.00
10668;BME280;5382;42.136;24.796;2024-03-08T11:45:12;100254.38;;;11.67;100.00
10668;BME280;5382;42.136;24.796;2024-03-08T11:47:41;100270.63;;;12.36;100.00
10668;BME280;5382;42.136;24.796;2024-03-08T11:50:10;100237.56;;;13.11;100.00
10668;BME280;5382;42.136;24.796;2024-03-08T11:52:38;100260.00;;;13.31;100.00
10668;BME280;5382;42.136;24.796;2024-03-08T11:55:07;100263.28;;;13.68;100.00
10668;BME280;5382;42.136;24.796;2024-03-08T11:57:34;100215.59;;;13.99;100.00
10668;BME280;5382;42.136;24.796;2024-03-08T12:00:03;100255.50;;;14.43;100.00
10668;BME280;5382;42.136;24.796;2024-03-08T12:02:33;100232.03;;;14.04;100.00
10668;BME280;5382;42.136;24.796;2024-03-08T12:05:04;100230.38;;;13.24;100.00
10668;BME280;5382;42.136;24.796;2024-03-08T12:07:35;100257.81;;;13.36;100.00
10668;BME280;5382;42.136;24.796;2024-03-08T12:10:20;100264.91;;;13.24;100.00
10668;BME280;5382;42.136;24.796;2024-03-08T12:12:49;100257.09;;;12.87;100.00
10668;BME280;5382;42.136;24.796;2024-03-08T12:15:18;100248.03;;;12.31;100.00
10668;BME280;5382;42.136;24.796;2024-03-08T12:17:45;100255.69;;;12.35;100.00
10668;BME280;5382;42.136;24.796;2024-03-08T12:20:16;100254.69;;;11.63;100.00
10668;BME280;5382;42.136;24.796;2024-03-08T12:22:43;100258.38;;;11.73;100.00
10668;BME280;5382;42.136;24.796;2024-03-08T12:25:11;100244.84;;;11.13;100.00
10668;BME280;5382;42.136;24.796;2024-03-08T12:27:41;100246.66;;;11.26;100.00
10668;BME280;5382;42.136;24.796;2024-03-08T12:30:20;100245.25;;;11.33;100.00
10668;BME280;5382;42.136;24.796;2024-03-08T12:32:54;100240.63;;;11.24;100.00
10668;BME280;5382;42.136;24.796;2024-03-08T12:35:23;100234.56;;;11.22;100.00
10668;BME280;5382;42.136;24.796;2024-03-08T12:37:51;100233.31;;;11.27;100.00
10668;BME280;5382;42.136;24.796;2024-03-08T12:40:19;100240.16;;;11.55;100.00
10668;BME280;5382;42.136;24.796;2024-03-08T12:42:48;100237.06;;;11.74;100.00
10668;BME280;5382;42.136;24.796;2024-03-08T12:45:15;100228.09;;;12.84;100.00
10668;BME280;5382;42.136;24.796;2024-03-08T12:47:42;100229.75;;;14.00;100.00
10668;BME280;5382;42.136;24.796;2024-03-08T12:50:10;100226.72;;;14.80;100.00
10668;BME280;5382;42.136;24.796;2024-03-08T12:52:39;100220.28;;;14.07;100.00
10668;BME280;5382;42.136;24.796;2024-03-08T12:55:06;100222.91;;;13.52;100.00